Time;durP1;ratioP1;P1;durP2;ratioP2;P2;SDS_P1;SDS_P2;PMS_P1;PMS_P2;Temp;Humidity;BMP_temperature;BMP_pressure;BME280_temperature;BME280_humidity;BME280_pressure;Samples;Min_cycle;Max_cycle;Signal;HPM_P1;HPM_P2
2021/04/03 00:00:10;;;;;;;39.47;4.47;;;;;;;1.84;90.15;102258.25;5015100;28;20634;-75
2021/04/03 00:02:36;;;;;;;32.72;4.93;;;;;;;1.75;90.51;102264.59;5008986;28;20046;-77
2021/04/03 00:05:02;;;;;;;42.42;5.35;;;;;;;1.68;90.76;102263.13;5010534;28;20519;-76
2021/04/03 00:07:28;;;;;;;36.60;5.00;;;;;;;1.65;90.99;102264.06;5002049;28;20471;-79
2021/04/03 00:09:54;;;;;;;44.72;5.53;;;;;;;1.67;91.05;102258.84;5021079;28;20111;-76
2021/04/03 00:12:19;;;;;;;31.83;4.72;;;;;;;1.61;90.70;102266.81;5008667;28;20080;-77
2021/04/03 00:14:46;;;;;;;30.23;4.60;;;;;;;1.56;90.50;102266.94;4990834;28;20034;-76
2021/04/03 00:17:12;;;;;;;33.60;4.57;;;;;;;1.63;90.85;102270.19;5021291;28;20137;-76
2021/04/03 00:19:37;;;;;;;43.78;5.60;;;;;;;1.63;90.97;102265.03;5016227;28;20544;-76
2021/04/03 00:22:03;;;;;;;39.78;5.47;;;;;;;1.52;91.43;102266.19;4998202;28;20192;-76
2021/04/03 00:24:29;;;;;;;24.83;4.28;;;;;;;1.59;91.28;102259.09;5012792;28;20447;-77
2021/04/03 00:26:54;;;;;;;30.98;5.03;;;;;;;1.50;90.92;102260.25;4987054;28;20068;-78
2021/04/03 00:29:26;;;;;;;33.72;5.10;;;;;;;1.46;91.16;102260.41;4982940;28;20041;-76
2021/04/03 00:31:52;;;;;;;31.17;4.13;;;;;;;1.41;91.10;102260.53;5014301;28;20061;-76
2021/04/03 00:34:17;;;;;;;35.22;4.30;;;;;;;1.46;91.56;102260.41;5011488;28;20048;-76
2021/04/03 00:36:43;;;;;;;35.33;4.80;;;;;;;1.34;91.49;102254.75;4981515;28;20100;-78
2021/04/03 00:39:14;;;;;;;37.80;4.18;;;;;;;1.48;91.55;102262.03;5031798;28;20554;-75
2021/04/03 00:41:39;;;;;;;35.00;4.57;;;;;;;1.33;92.60;102267.72;5032044;28;20049;-77
2021/04/03 00:44:07;;;;;;;36.72;5.20;;;;;;;1.36;92.43;102271.03;5012737;28;20070;-78
2021/04/03 00:46:33;;;;;;;40.17;6.68;;;;;;;1.28;92.84;102267.88;4993926;28;20455;-75
2021/04/03 00:48:58;;;;;;;39.10;5.55;;;;;;;1.24;92.58;102275.75;4994049;28;20065;-76
2021/04/03 00:51:24;;;;;;;38.78;5.65;;;;;;;1.13;91.97;102281.25;5008308;28;20042;-76
2021/04/03 00:53:50;;;;;;;41.88;5.88;;;;;;;1.22;93.02;102274.97;5015685;28;20038;-76
2021/04/03 00:56:17;;;;;;;33.13;5.13;;;;;;;1.14;93.30;102275.22;4992853;28;20567;-77
2021/04/03 00:58:42;;;;;;;36.20;5.88;;;;;;;1.17;93.70;102285.47;5008354;28;20038;-78
2021/04/03 01:01:14;;;;;;;48.15;6.68;;;;;;;1.21;93.73;102281.88;5003783;28;20045;-76
2021/04/03 01:03:42;;;;;;;26.13;4.20;;;;;;;1.17;93.25;102268.19;5012228;28;20117;-77
2021/04/03 01:06:08;;;;;;;28.77;4.32;;;;;;;1.12;93.13;102283.00;4976439;28;20791;-76
2021/04/03 01:08:34;;;;;;;60.15;5.63;;;;;;;1.19;92.97;102283.66;5010850;28;20042;-76
2021/04/03 01:11:01;;;;;;;37.83;4.57;;;;;;;1.10;93.22;102271.88;4996615;28;20456;-77
2021/04/03 01:13:50;;;;;;;43.42;5.30;;;;;;;1.16;92.76;102283.75;5001876;28;20060;-78
2021/04/03 01:16:43;;;;;;;32.60;5.80;;;;;;;1.13;93.32;102276.09;5000764;28;20038;-77
2021/04/03 01:19:32;;;;;;;35.75;5.57;;;;;;;1.19;92.83;102285.38;4990352;28;20037;-80
2021/04/03 01:22:29;;;;;;;47.15;5.25;;;;;;;1.16;93.59;102292.34;5007178;28;20034;-76
2021/04/03 01:25:18;;;;;;;33.63;5.20;;;;;;;1.25;92.79;102282.63;5012986;28;20037;-77
2021/04/03 01:28:05;;;;;;;39.38;5.15;;;;;;;1.11;93.18;102289.06;5020183;28;20057;-78
2021/04/03 01:30:32;;;;;;;42.60;6.00;;;;;;;0.99;93.02;102301.53;5031017;28;20490;-77
2021/04/03 01:33:06;;;;;;;34.40;5.75;;;;;;;1.06;93.02;102282.38;4998328;28;20069;-77
2021/04/03 01:35:43;;;;;;;39.28;5.63;;;;;;;1.04;93.01;102292.75;5000921;28;20042;-77
2021/04/03 01:38:25;;;;;;;;;;;;;;;0.97;94.00;102309.31;5012819;28;20041;-76
2021/04/03 01:40:54;;;;;;;40.08;6.18;;;;;;;1.08;94.12;102290.91;5030616;28;21470;-76
2021/04/03 01:43:25;;;;;;;30.50;5.65;;;;;;;1.09;94.23;102308.97;5005235;28;20526;-76
2021/04/03 01:45:54;;;;;;;41.40;6.05;;;;;;;1.12;93.99;102303.69;5017896;28;20042;-77
2021/04/03 01:48:23;;;;;;;43.45;5.80;;;;;;;1.02;93.89;102304.00;4997519;28;20554;-78
2021/04/03 01:50:50;;;;;;;38.83;6.38;;;;;;;1.00;94.05;102300.63;5020351;28;20504;-76
2021/04/03 01:53:20;;;;;;;36.85;5.95;;;;;;;1.02;93.99;102307.44;4997693;28;20057;-77
2021/04/03 01:55:49;;;;;;;50.97;6.82;;;;;;;1.10;94.01;102296.88;5011504;28;20088;-78
2021/04/03 01:58:17;;;;;;;44.60;6.45;;;;;;;1.03;94.41;102316.03;5004554;28;20045;-75
2021/04/03 02:00:45;;;;;;;32.47;6.60;;;;;;;1.10;94.44;102308.06;5005891;28;20068;-76
2021/04/03 02:03:11;;;;;;;50.17;5.65;;;;;;;1.10;94.39;102320.97;5027520;28;20049;-77
2021/04/03 02:05:37;;;;;;;33.95;5.75;;;;;;;1.13;94.18;102305.38;5030261;28;20119;-76
2021/04/03 02:08:17;;;;;;;36.35;5.85;;;;;;;0.96;94.47;102331.72;4979533;28;20042;-75
2021/04/03 02:10:50;;;;;;;41.60;6.65;;;;;;;0.99;94.40;102332.53;5010539;28;20465;-76
2021/04/03 02:13:32;;;;;;;40.67;5.85;;;;;;;1.07;94.83;102325.38;5003805;28;20049;-75
2021/04/03 02:15:59;;;;;;;40.28;5.38;;;;;;;1.00;94.61;102329.03;5011126;28;20046;-75
2021/04/03 02:18:30;;;;;;;35.65;5.80;;;;;;;0.94;94.98;102325.78;5004529;28;20530;-76
2021/04/03 02:21:07;;;;;;;48.85;5.90;;;;;;;0.94;95.13;102324.91;5011473;28;20037;-76
2021/04/03 02:23:35;;;;;;;39.00;5.38;;;;;;;1.08;95.54;102324.50;4986413;28;20200;-77
2021/04/03 02:26:02;;;;;;;37.25;4.93;;;;;;;1.01;94.92;102326.41;5029427;28;20049;-75
2021/04/03 02:28:28;;;;;;;39.00;6.22;;;;;;;1.01;95.12;102321.25;5015285;28;20049;-76
2021/04/03 02:30:54;;;;;;;40.63;5.80;;;;;;;1.02;94.62;102311.75;4994178;28;20034;-75
2021/04/03 02:33:21;;;;;;;34.03;5.90;;;;;;;1.01;94.34;102315.25;4999937;28;20089;-76
2021/04/03 02:35:47;;;;;;;34.83;5.35;;;;;;;0.95;94.91;102324.84;4982766;28;20045;-77
2021/04/03 02:38:14;;;;;;;48.10;6.55;;;;;;;1.10;94.61;102320.97;5016256;28;20558;-76
2021/04/03 02:40:49;;;;;;;29.83;5.20;;;;;;;0.97;94.38;102323.06;4994777;28;20078;-75
2021/04/03 02:43:25;;;;;;;29.00;5.07;;;;;;;0.94;94.66;102324.91;4996937;28;20072;-76
2021/04/03 02:46:12;;;;;;;28.70;4.85;;;;;;;0.91;94.21;102328.44;5013508;28;20235;-76
2021/04/03 02:48:42;;;;;;;36.05;5.80;;;;;;;0.88;93.98;102328.50;4995887;28;20133;-75
2021/04/03 02:51:12;;;;;;;27.70;4.93;;;;;;;0.85;93.67;102328.63;4984122;28;20061;-77
2021/04/03 02:53:39;;;;;;;49.65;5.32;;;;;;;0.97;95.09;102330.81;4995818;28;20096;-76
2021/04/03 02:56:14;;;;;;;37.13;5.80;;;;;;;1.00;94.51;102329.91;4998188;28;20052;-76
2021/04/03 02:58:43;;;;;;;43.17;5.63;;;;;;;1.21;94.73;102337.91;5006736;28;20045;-76
2021/04/03 03:01:14;;;;;;;39.90;5.87;;;;;;;1.27;94.45;102340.28;5019996;28;20422;-76
2021/04/03 03:03:50;;;;;;;36.97;4.72;;;;;;;1.24;94.06;102343.81;5017563;28;20041;-76
2021/04/03 03:06:18;;;;;;;40.25;5.68;;;;;;;1.11;93.58;102345.06;5024096;28;20045;-76
2021/04/03 03:08:45;;;;;;;39.40;5.95;;;;;;;0.95;93.86;102347.28;5001625;28;20124;-77
2021/04/03 03:11:13;;;;;;;39.72;5.72;;;;;;;0.99;93.98;102351.47;5025093;28;20045;-78
2021/04/03 03:13:41;;;;;;;29.17;5.10;;;;;;;1.04;93.81;102348.75;5006541;28;20491;-77
2021/04/03 03:16:09;;;;;;;39.60;6.00;;;;;;;1.09;93.57;102342.56;5004899;28;20046;-75
2021/04/03 03:18:39;;;;;;;26.98;4.88;;;;;;;1.02;93.95;102350.50;5016077;28;20120;-76
2021/04/03 03:21:07;;;;;;;36.95;5.18;;;;;;;0.94;94.35;102348.16;4988495;28;20045;-76
2021/04/03 03:23:34;;;;;;;31.92;5.05;;;;;;;0.83;94.34;102358.81;5006255;28;20041;-76
2021/04/03 03:26:01;;;;;;;29.77;4.78;;;;;;;0.88;94.90;102356.09;5009913;28;20467;-77
2021/04/03 03:28:32;;;;;;;34.63;6.68;;;;;;;0.82;94.32;102356.28;5022864;28;20052;-77
2021/04/03 03:30:58;;;;;;;31.38;5.47;;;;;;;0.87;94.08;102357.00;4993323;28;20428;-76
2021/04/03 03:33:26;;;;;;;27.17;5.50;;;;;;;0.90;94.58;102359.47;4998174;28;20037;-78
2021/04/03 03:35:53;;;;;;;32.83;5.57;;;;;;;0.81;93.94;102352.84;5007226;28;20048;-76
2021/04/03 03:38:19;;;;;;;40.83;5.78;;;;;;;0.83;94.39;102368.28;5029672;28;20102;-78
2021/04/03 03:40:46;;;;;;;35.58;5.75;;;;;;;0.83;93.79;102358.81;4999706;28;20053;-78
2021/04/03 03:43:17;;;;;;;39.67;5.72;;;;;;;0.82;93.87;102346.78;4995070;28;20052;-78
2021/04/03 03:45:48;;;;;;;32.15;4.85;;;;;;;0.73;93.79;102368.53;5022771;28;20045;-77
2021/04/03 03:48:14;;;;;;;30.90;5.13;;;;;;;0.76;93.75;102371.06;4993409;28;20050;-77
2021/04/03 03:50:41;;;;;;;35.00;5.15;;;;;;;0.72;93.96;102372.03;4997134;28;20081;-75
2021/04/03 03:53:08;;;;;;;27.52;4.72;;;;;;;0.57;93.76;102368.13;5010005;28;20083;-75
2021/04/03 03:55:34;;;;;;;29.95;5.35;;;;;;;0.49;93.63;102382.13;4993935;28;20046;-77
2021/04/03 03:58:04;;;;;;;27.63;5.30;;;;;;;0.41;93.87;102377.19;5010899;28;20034;-77
2021/04/03 04:00:32;;;;;;;28.58;5.18;;;;;;;0.34;93.66;102375.63;5011028;28;20037;-75
2021/04/03 04:03:06;;;;;;;27.48;4.50;;;;;;;0.25;93.63;102394.81;5019818;28;20038;-75
2021/04/03 04:05:37;;;;;;;27.92;4.95;;;;;;;0.41;94.65;102390.09;4996251;28;20116;-80
2021/04/03 04:08:05;;;;;;;31.30;5.50;;;;;;;0.21;94.47;102397.50;5005746;28;20045;-77
2021/04/03 04:10:32;;;;;;;26.38;5.20;;;;;;;0.21;94.80;102400.94;4993331;28;20160;-75
2021/04/03 04:12:58;;;;;;;21.50;5.07;;;;;;;0.25;94.77;102399.97;4986219;28;20042;-76
2021/04/03 04:15:24;;;;;;;30.20;5.28;;;;;;;0.29;95.16;102408.50;5002418;28;20072;-75
2021/04/03 04:17:52;;;;;;;37.97;5.78;;;;;;;0.11;94.65;102405.47;5008991;28;20056;-77
2021/04/03 04:20:18;;;;;;;23.65;5.40;;;;;;;0.16;95.46;102405.38;4982021;28;20041;-76
2021/04/03 04:22:49;;;;;;;37.17;5.55;;;;;;;0.17;95.05;102405.34;4981689;28;20046;-75
2021/04/03 04:25:16;;;;;;;22.98;5.53;;;;;;;0.08;94.90;102408.13;4992247;28;20050;-76
2021/04/03 04:27:44;;;;;;;22.48;4.65;;;;;;;0.03;94.86;102416.88;4996517;28;20057;-81
2021/04/03 04:30:12;;;;;;;23.05;5.68;;;;;;;-0.02;94.70;102410.09;4994829;28;20471;-74
2021/04/03 04:32:44;;;;;;;24.23;5.10;;;;;;;-0.08;94.50;102410.22;4992824;28;20046;-77
2021/04/03 04:35:15;;;;;;;34.05;5.47;;;;;;;-0.13;94.86;102401.78;5003110;28;20037;-78
2021/04/03 04:37:43;;;;;;;25.88;5.15;;;;;;;-0.24;94.76;102412.34;5022329;28;20054;-77
2021/04/03 04:40:12;;;;;;;27.33;5.70;;;;;;;-0.26;95.02;102413.28;5015269;28;20128;-75
2021/04/03 04:42:40;;;;;;;23.55;5.18;;;;;;;-0.37;95.05;102405.78;5024627;28;20045;-78
2021/04/03 04:45:08;;;;;;;29.42;5.00;;;;;;;-0.36;95.18;102415.19;4978686;28;20038;-75
2021/04/03 04:47:34;;;;;;;29.90;5.30;;;;;;;-0.35;95.53;102418.63;4996018;28;20050;-75
2021/04/03 04:50:00;;;;;;;20.35;4.43;;;;;;;-0.29;95.39;102418.47;5000467;28;20610;-76
2021/04/03 04:52:27;;;;;;;39.10;5.45;;;;;;;-0.33;95.55;102419.44;5028437;28;20044;-74
2021/04/03 04:54:52;;;;;;;27.48;4.85;;;;;;;-0.38;95.32;102423.84;5017171;28;20037;-75
2021/04/03 04:57:19;;;;;;;25.90;5.22;;;;;;;-0.36;95.70;102437.56;5017679;28;20514;-75
2021/04/03 04:59:55;;;;;;;21.27;4.90;;;;;;;-0.39;95.62;102433.31;5001595;28;20025;-77
2021/04/03 05:02:23;;;;;;;20.80;4.88;;;;;;;-0.36;95.43;102440.13;5025713;28;20090;-76
2021/04/03 05:04:49;;;;;;;31.23;5.57;;;;;;;-0.41;95.48;102441.09;5012362;28;20504;-75
2021/04/03 05:07:15;;;;;;;21.73;4.88;;;;;;;-0.41;95.89;102441.09;5018714;28;20061;-77
2021/04/03 05:09:41;;;;;;;27.45;5.80;;;;;;;-0.42;96.20;102438.53;5013258;28;20057;-76
2021/04/03 05:12:07;;;;;;;28.00;5.25;;;;;;;-0.18;95.86;102441.47;4998727;28;20041;-75
2021/04/03 05:14:33;;;;;;;31.67;6.07;;;;;;;-0.14;96.15;102453.41;5005970;28;20034;-77
2021/04/03 05:16:58;;;;;;;24.27;5.20;;;;;;;-0.20;95.54;102444.91;5014206;28;20112;-77
2021/04/03 05:19:24;;;;;;;25.00;5.47;;;;;;;-0.20;95.99;102446.66;5010327;28;20125;-76
2021/04/03 05:21:49;;;;;;;25.70;5.13;;;;;;;-0.24;95.87;102447.59;4996283;28;20092;-78
2021/04/03 05:24:15;;;;;;;21.13;4.72;;;;;;;-0.10;96.16;102467.91;5031780;28;20049;-77
2021/04/03 05:26:40;;;;;;;40.03;6.65;;;;;;;0.01;97.06;102480.56;5004798;28;20101;-76
2021/04/03 05:29:06;;;;;;;21.08;5.80;;;;;;;0.26;97.19;102471.34;5022137;28;20099;-76
2021/04/03 05:31:32;;;;;;;25.60;6.05;;;;;;;0.25;96.80;102486.88;4995202;28;20049;-75
2021/04/03 05:33:57;;;;;;;39.42;6.25;;;;;;;0.51;96.30;102488.78;5022160;28;20042;-77
2021/04/03 05:36:23;;;;;;;26.65;6.05;;;;;;;0.61;95.87;102492.03;5008244;28;20038;-76
2021/04/03 05:38:48;;;;;;;31.25;6.95;;;;;;;0.65;95.67;102483.31;5014234;28;20052;-77
2021/04/03 05:41:14;;;;;;;26.90;6.20;;;;;;;0.70;95.00;102494.38;5013150;28;20531;-75
2021/04/03 05:43:40;;;;;;;23.98;6.05;;;;;;;0.76;95.32;102491.63;4986127;28;20146;-79
2021/04/03 05:46:06;;;;;;;25.55;6.13;;;;;;;0.86;94.87;102505.13;5013976;28;20077;-76
2021/04/03 05:48:33;;;;;;;25.73;5.68;;;;;;;1.05;94.22;102505.50;4981272;28;20396;-81
2021/04/03 05:50:59;;;;;;;22.75;5.18;;;;;;;1.20;93.21;102505.06;5018374;28;20436;-76
2021/04/03 05:53:26;;;;;;;29.10;6.05;;;;;;;1.41;91.56;102513.94;5034671;28;20059;-77
2021/04/03 05:56:01;;;;;;;19.77;4.95;;;;;;;1.47;91.39;102518.09;5003552;28;20042;-76
2021/04/03 05:58:26;;;;;;;18.88;5.10;;;;;;;1.53;91.81;102510.19;5001381;28;20045;-77
2021/04/03 06:00:53;;;;;;;21.05;5.18;;;;;;;1.59;92.21;102514.31;5003603;28;20141;-75
2021/04/03 06:03:19;;;;;;;23.58;5.32;;;;;;;1.69;91.09;102516.56;5012117;28;20045;-77
2021/04/03 06:05:48;;;;;;;19.95;5.60;;;;;;;1.85;90.69;102523.91;5018663;28;20136;-76
2021/04/03 06:08:14;;;;;;;22.05;5.28;;;;;;;2.02;89.50;102520.81;5015480;28;20059;-77
2021/04/03 06:10:39;;;;;;;23.02;4.95;;;;;;;2.25;88.56;102528.69;5025472;28;20033;-78
2021/04/03 06:13:17;;;;;;;19.70;5.55;;;;;;;2.37;87.87;102527.44;5023802;28;20431;-77
2021/04/03 06:15:43;;;;;;;14.48;4.47;;;;;;;2.55;87.12;102520.81;5009122;28;20109;-76
2021/04/03 06:18:11;;;;;;;14.32;4.32;;;;;;;2.68;86.49;102527.28;5021858;28;20113;-77
2021/04/03 06:20:41;;;;;;;12.57;4.15;;;;;;;2.78;86.78;102532.16;5003048;28;20037;-75
2021/04/03 06:23:08;;;;;;;21.95;4.68;;;;;;;2.89;86.08;102535.22;5005920;28;20050;-75
2021/04/03 06:25:56;;;;;;;12.13;4.18;;;;;;;3.00;84.78;102543.47;5016344;28;20672;-75
2021/04/03 06:28:30;;;;;;;10.48;3.78;;;;;;;3.23;83.98;102545.25;4984818;28;20073;-78
2021/04/03 06:31:11;;;;;;;15.27;4.65;;;;;;;3.25;82.54;102546.03;4993476;28;20050;-77
2021/04/03 06:33:37;;;;;;;14.50;4.68;;;;;;;3.45;82.75;102557.47;5008582;28;20571;-75
2021/04/03 06:36:11;;;;;;;16.90;4.65;;;;;;;3.54;83.14;102557.09;4983294;28;20101;-75
2021/04/03 06:38:38;;;;;;;15.55;4.22;;;;;;;3.70;82.32;102555.63;5008588;28;20042;-76
2021/04/03 06:41:23;;;;;;;11.90;4.25;;;;;;;3.83;82.66;102558.63;4990257;28;20045;-75
2021/04/03 06:44:06;;;;;;;11.73;3.78;;;;;;;3.97;82.37;102565.03;5005987;28;20920;-76
2021/04/03 06:46:33;;;;;;;12.77;4.57;;;;;;;4.03;79.69;102572.59;4991543;28;20056;-78
2021/04/03 06:48:59;;;;;;;10.30;3.53;;;;;;;4.14;80.04;102573.00;5000073;28;20050;-75
2021/04/03 06:51:26;;;;;;;12.23;4.13;;;;;;;4.34;78.88;102569.63;5023147;28;20164;-74
2021/04/03 06:53:54;;;;;;;10.05;3.88;;;;;;;4.43;77.99;102574.47;5009904;28;20037;-76
2021/04/03 06:56:24;;;;;;;11.43;3.58;;;;;;;4.42;77.61;102562.38;5018460;28;20495;-78
2021/04/03 06:59:05;;;;;;;8.27;4.00;;;;;;;4.47;77.85;102570.00;5030923;28;20128;-77
2021/04/03 07:01:49;;;;;;;12.18;4.32;;;;;;;4.58;77.02;102570.41;5012768;28;20510;-75
2021/04/03 07:04:30;;;;;;;13.73;3.63;;;;;;;4.66;76.48;102581.31;5022916;28;20061;-75
2021/04/03 07:06:56;;;;;;;11.70;3.50;;;;;;;4.75;76.41;102597.47;5017558;28;20046;-75
2021/04/03 07:09:23;;;;;;;10.65;3.50;;;;;;;4.85;75.75;102593.56;5002364;28;20112;-76
2021/04/03 07:11:52;;;;;;;11.63;4.15;;;;;;;4.92;74.97;102584.59;5016971;28;20148;-76
2021/04/03 07:14:19;;;;;;;10.05;3.40;;;;;;;5.07;74.45;102594.34;4991012;28;20409;-77
2021/04/03 07:16:48;;;;;;;10.60;3.63;;;;;;;5.28;74.70;102585.72;4988661;28;20042;-75
2021/04/03 07:19:15;;;;;;;8.63;3.20;;;;;;;5.43;72.54;102595.44;5002527;28;20049;-75
2021/04/03 07:21:42;;;;;;;9.75;3.40;;;;;;;5.52;72.48;102594.16;5022573;28;20096;-77
2021/04/03 07:24:10;;;;;;;10.10;2.90;;;;;;;5.69;70.52;102599.47;5007744;28;20064;-79
2021/04/03 07:26:38;;;;;;;7.97;2.60;;;;;;;5.70;69.46;102590.75;4998881;28;20045;-77
2021/04/03 07:29:03;;;;;;;10.88;3.25;;;;;;;5.77;68.12;102597.38;4992718;28;20042;-76
2021/04/03 07:31:41;;;;;;;10.73;3.03;;;;;;;5.93;68.21;102591.44;5023089;28;20049;-77
2021/04/03 07:34:09;;;;;;;7.32;2.40;;;;;;;5.95;65.20;102600.94;5008999;28;20247;-76
2021/04/03 07:36:38;;;;;;;10.43;2.67;;;;;;;6.06;65.91;102595.19;5000773;28;20046;-76
2021/04/03 07:39:06;;;;;;;10.18;2.80;;;;;;;6.16;66.72;102600.81;5008000;28;20045;-78
2021/04/03 07:41:38;;;;;;;5.18;2.30;;;;;;;6.21;65.78;102597.06;5009447;28;20044;-77
2021/04/03 07:44:09;;;;;;;4.97;2.00;;;;;;;6.32;60.49;102609.59;5012000;28;20500;-76
2021/04/03 07:46:44;;;;;;;9.10;2.05;;;;;;;6.27;60.51;102602.94;5011510;28;20072;-76
2021/04/03 07:49:11;;;;;;;6.13;1.80;;;;;;;6.38;58.80;102605.88;5023220;28;20093;-75
2021/04/03 07:51:40;;;;;;;2.45;1.40;;;;;;;6.49;60.15;102616.63;5007448;28;20064;-75
2021/04/03 07:54:11;;;;;;;6.10;1.60;;;;;;;6.62;57.78;102604.69;5010341;28;20077;-75
2021/04/03 07:56:50;;;;;;;2.58;1.50;;;;;;;6.73;55.25;102611.97;5009557;28;20041;-76
2021/04/03 07:59:15;;;;;;;4.60;1.58;;;;;;;6.74;55.38;102608.47;5009982;28;20054;-79
2021/04/03 08:01:41;;;;;;;2.85;1.58;;;;;;;6.81;52.25;102612.44;5009044;28;20049;-77
2021/04/03 08:04:09;;;;;;;8.18;1.88;;;;;;;6.92;51.34;102605.84;5030475;28;20041;-76
2021/04/03 08:06:41;;;;;;;2.88;1.10;;;;;;;7.00;50.09;102606.31;5015574;28;20095;-76
2021/04/03 08:09:13;;;;;;;5.43;1.60;;;;;;;7.07;50.48;102618.13;5020238;28;20750;-77
2021/04/03 08:11:41;;;;;;;4.80;1.63;;;;;;;7.19;54.33;102614.88;5007009;28;20117;-77
2021/04/03 08:14:13;;;;;;;5.50;1.80;;;;;;;7.26;52.30;102617.19;4986596;28;20069;-76
2021/04/03 08:16:40;;;;;;;5.10;1.40;;;;;;;7.30;52.52;102624.78;5015298;28;20053;-76
2021/04/03 08:19:06;;;;;;;2.83;0.88;;;;;;;7.35;46.24;102609.72;5021222;28;20042;-77
2021/04/03 08:21:46;;;;;;;3.47;1.00;;;;;;;7.58;45.09;102623.34;5021210;28;20211;-79
2021/04/03 08:24:13;;;;;;;2.35;0.80;;;;;;;7.69;45.10;102621.00;5010366;28;20065;-75
2021/04/03 08:26:40;;;;;;;3.72;0.60;;;;;;;7.82;44.19;102626.41;5022097;28;20080;-77
2021/04/03 08:29:19;;;;;;;4.10;1.08;;;;;;;7.87;44.28;102623.53;5012951;28;20599;-77
2021/04/03 08:31:48;;;;;;;1.63;0.77;;;;;;;8.04;43.67;102626.09;5017799;28;20061;-76
2021/04/03 08:34:14;;;;;;;4.75;0.98;;;;;;;8.04;41.33;102618.25;5014033;28;20049;-75
2021/04/03 08:36:39;;;;;;;2.53;1.02;;;;;;;8.14;42.13;102629.91;5022599;28;20101;-78
2021/04/03 08:39:08;;;;;;;2.33;0.77;;;;;;;8.24;42.63;102634.63;5005784;28;20201;-77
2021/04/03 08:41:35;;;;;;;2.50;0.88;;;;;;;8.27;40.25;102643.13;5005808;28;20052;-75
2021/04/03 08:44:01;;;;;;;3.15;0.90;;;;;;;8.23;40.74;102636.41;4994889;28;20045;-76
2021/04/03 08:46:26;;;;;;;3.67;2.05;;;;;;;8.29;41.06;102640.44;5011592;28;20037;-76
2021/04/03 08:48:58;;;;;;;3.22;1.20;;;;;;;8.16;40.63;102632.44;5011151;28;20100;-79
2021/04/03 08:51:25;;;;;;;3.05;1.35;;;;;;;8.30;41.89;102637.72;5019504;28;20057;-75
2021/04/03 08:53:58;;;;;;;5.55;1.10;;;;;;;8.34;39.44;102635.78;5023494;28;20037;-77
2021/04/03 08:56:27;;;;;;;8.55;1.17;;;;;;;8.63;41.60;102644.66;4998615;28;20037;-76
2021/04/03 08:58:54;;;;;;;4.78;1.17;;;;;;;8.60;40.16;102651.81;4998097;28;20096;-75
2021/04/03 09:01:20;;;;;;;2.95;0.93;;;;;;;8.52;39.90;102637.41;5009590;28;20057;-77
2021/04/03 09:03:48;;;;;;;6.40;1.08;;;;;;;8.59;41.41;102645.75;5007090;28;20119;-78
2021/04/03 09:06:14;;;;;;;2.50;0.70;;;;;;;8.63;40.40;102638.56;5020020;28;20128;-77
2021/04/03 09:08:40;;;;;;;3.65;0.95;;;;;;;8.92;43.58;102648.19;5015334;28;20782;-76
2021/04/03 09:11:05;;;;;;;1.33;0.70;;;;;;;9.02;41.52;102643.25;5019253;28;20049;-74
2021/04/03 09:13:45;;;;;;;2.58;0.73;;;;;;;8.91;40.47;102640.41;5020176;28;20049;-79
2021/04/03 09:16:13;;;;;;;2.60;0.75;;;;;;;8.90;38.66;102644.00;4994905;28;20054;-77
2021/04/03 09:18:41;;;;;;;1.80;0.85;;;;;;;8.94;39.76;102640.25;5018165;28;20049;-79
2021/04/03 09:21:08;;;;;;;1.27;0.50;;;;;;;8.90;38.92;102636.13;4965811;28;20682;-77
2021/04/03 09:23:43;;;;;;;2.35;0.80;;;;;;;8.86;38.86;102637.25;5000346;28;20034;-76
2021/04/03 09:26:08;;;;;;;1.25;0.57;;;;;;;9.18;39.63;102645.84;5012273;28;20562;-77
2021/04/03 09:28:39;;;;;;;2.10;0.80;;;;;;;8.90;38.69;102639.59;5008570;28;20050;-77
2021/04/03 09:31:07;;;;;;;2.55;0.70;;;;;;;8.98;39.83;102646.16;5015532;28;20057;-74
2021/04/03 09:33:44;;;;;;;1.48;0.73;;;;;;;9.01;40.61;102648.59;5015027;28;20038;-75
2021/04/03 09:36:12;;;;;;;2.53;0.88;;;;;;;9.26;41.34;102640.13;4987223;28;20050;-74
2021/04/03 09:38:38;;;;;;;2.78;0.82;;;;;;;9.38;40.95;102639.41;5013132;28;20034;-76
2021/04/03 09:41:23;;;;;;;3.10;0.80;;;;;;;9.41;41.10;102638.38;5016110;28;20044;-76
2021/04/03 09:43:50;;;;;;;1.52;0.73;;;;;;;9.37;41.74;102640.34;5016475;28;20041;-76
2021/04/03 09:46:15;;;;;;;3.70;1.00;;;;;;;9.72;40.21;102632.97;5010436;28;20044;-77
2021/04/03 09:48:42;;;;;;;5.07;0.98;;;;;;;9.76;39.16;102628.38;5008215;28;20033;-75
2021/04/03 09:51:08;;;;;;;3.30;0.80;;;;;;;9.83;38.85;102632.31;5012861;28;20054;-76
2021/04/03 09:53:34;;;;;;;3.33;1.15;;;;;;;9.98;41.06;102622.59;5004771;28;20084;-76
2021/04/03 09:56:01;;;;;;;2.10;0.90;;;;;;;10.08;40.14;102641.25;4988319;28;20136;-76
2021/04/03 09:58:27;;;;;;;4.95;1.13;;;;;;;10.14;38.69;102630.38;5008398;28;20680;-78
2021/04/03 10:00:52;;;;;;;2.75;0.80;;;;;;;10.28;41.23;102629.47;5015693;28;20128;-75
2021/04/03 10:03:19;;;;;;;2.10;1.00;;;;;;;10.06;39.96;102632.63;4998353;28;20095;-75
2021/04/03 10:05:44;;;;;;;4.32;1.20;;;;;;;10.14;39.36;102641.69;5010425;28;20152;-77
2021/04/03 10:08:10;;;;;;;2.38;0.90;;;;;;;10.13;38.85;102632.16;4997920;28;20132;-77
2021/04/03 10:10:36;;;;;;;1.67;0.93;;;;;;;10.03;38.70;102632.81;5013756;28;20049;-76
2021/04/03 10:13:02;;;;;;;3.72;0.90;;;;;;;10.30;39.51;102641.59;5018338;28;20504;-77
2021/04/03 10:15:28;;;;;;;2.80;1.00;;;;;;;10.48;39.81;102641.34;4989785;28;20156;-75
2021/04/03 10:17:53;;;;;;;6.95;0.90;;;;;;;10.56;38.83;102636.44;4995679;28;20046;-75
2021/04/03 10:20:19;;;;;;;3.03;0.80;;;;;;;10.37;38.05;102634.16;5011828;28;20508;-76
2021/04/03 10:22:45;;;;;;;5.05;1.10;;;;;;;10.76;38.92;102640.38;5010804;28;20072;-76
2021/04/03 10:25:12;;;;;;;1.45;0.90;;;;;;;10.79;38.95;102640.16;4999653;28;20137;-75
2021/04/03 10:27:38;;;;;;;4.47;1.20;;;;;;;10.90;38.89;102652.59;5013437;28;20066;-75
2021/04/03 10:30:05;;;;;;;1.65;0.75;;;;;;;10.79;38.94;102648.03;5015547;28;20046;-75
2021/04/03 10:32:30;;;;;;;3.10;0.80;;;;;;;11.19;38.58;102647.16;5018897;28;20353;-77
2021/04/03 10:34:56;;;;;;;2.38;0.80;;;;;;;11.29;37.59;102646.44;4996081;28;20065;-77
2021/04/03 10:37:21;;;;;;;3.40;0.93;;;;;;;11.25;36.92;102646.75;5015519;28;20639;-76
2021/04/03 10:39:47;;;;;;;2.40;1.10;;;;;;;11.15;37.12;102648.31;5024373;28;20052;-77
2021/04/03 10:42:13;;;;;;;1.55;0.85;;;;;;;11.12;38.27;102657.25;5011729;28;20045;-76
2021/04/03 10:44:39;;;;;;;2.25;0.90;;;;;;;11.28;35.88;102639.50;4996826;28;20033;-75
2021/04/03 10:47:04;;;;;;;2.97;1.15;;;;;;;10.78;37.72;102641.13;5014852;28;20554;-76
2021/04/03 10:49:30;;;;;;;4.22;1.20;;;;;;;10.75;37.00;102648.34;4997395;28;20056;-75
2021/04/03 10:51:56;;;;;;;1.85;0.85;;;;;;;10.97;38.13;102643.34;5041073;28;20061;-76
2021/04/03 10:54:22;;;;;;;5.00;0.90;;;;;;;11.18;39.36;102645.50;5008038;28;20727;-75
2021/04/03 10:56:48;;;;;;;4.15;1.30;;;;;;;11.26;37.94;102636.16;4987659;28;20066;-74
2021/04/03 10:59:14;;;;;;;2.72;0.95;;;;;;;11.11;36.36;102639.78;5020889;28;20100;-76
2021/04/03 11:01:40;;;;;;;2.83;1.08;;;;;;;11.04;39.44;102649.06;5021239;28;20034;-75
2021/04/03 11:04:06;;;;;;;3.92;1.00;;;;;;;11.08;38.70;102640.03;5012770;28;20045;-77
2021/04/03 11:06:32;;;;;;;3.33;0.90;;;;;;;10.99;37.46;102636.22;5011780;28;20130;-74
2021/04/03 11:08:57;;;;;;;5.25;1.05;;;;;;;11.02;37.57;102637.78;5010748;28;20129;-76
2021/04/03 11:11:23;;;;;;;4.38;1.00;;;;;;;11.29;38.92;102635.09;5005015;28;20051;-76
2021/04/03 11:13:48;;;;;;;1.23;0.90;;;;;;;11.42;38.11;102630.66;5013744;28;20122;-76
2021/04/03 11:16:14;;;;;;;3.00;1.13;;;;;;;11.38;39.05;102631.84;5022506;28;20042;-75
2021/04/03 11:18:39;;;;;;;0.80;0.80;;;;;;;11.41;37.26;102630.78;4997629;28;20048;-76
2021/04/03 11:21:05;;;;;;;2.28;0.80;;;;;;;12.04;36.14;102629.88;5005542;28;20124;-75
2021/04/03 11:23:31;;;;;;;4.35;1.00;;;;;;;11.90;36.05;102621.28;5013807;28;20054;-76
2021/04/03 11:25:56;;;;;;;5.03;1.00;;;;;;;11.83;35.95;102628.75;5015502;28;20069;-77
2021/04/03 11:28:22;;;;;;;5.55;1.48;;;;;;;11.76;37.48;102617.81;4996352;28;20118;-79
2021/04/03 11:30:48;;;;;;;2.15;1.00;;;;;;;11.33;36.92;102622.59;5013589;28;20056;-77
2021/04/03 11:33:14;;;;;;;2.03;1.10;;;;;;;11.30;36.56;102627.13;5010652;28;20136;-76